Auvergne, Arkansas
Current Conditions -  °F | °C
As of 1:22 AM on Thursday 18 Dec 2014 (Local Time) from KM19 Reporting Station
Light Rain Light Rain  
Wind Chill: 30°   Ceiling: 9500
Heat Index: 36°   Visibility: 3mi
Dew Point: 34°   Wind: 7mph
Humidity: 93%   Direction: 70°ENE
Pressure: 30.28"   Gusts: NA
Location:  35.5678°N, 91.2073°W
Report Text: KM19 180722Z AUTO 07006KT 3SM -RA BR SCT075 OVC095 02/01 A3028 RMK AO2 P0002
Loading
Personal Weather Stations






























Interactive Weather Map New forecast layout! Learn more

10-Day Weather Forecast

Advertisements
Track Severe Weather on mobile